Terminal Aerodrome Forecast
Issued by NWS Charleston, WV

Current Version | Previous Version | Text Only | Print | Product List | Glossary Off
Versions: 1 2 3 4 5 6 7 8 9 10 11 12 13 14 15 16 17 18 19 20 21 22 23 24 25 26 27

000
FTUS41 KRLX 190800 AAA
TAFCRW
TAF AMD
KCRW 190828Z 1908/2006 00000KT 3SM BR BKN007 BKN100
      TEMPO 1908/1912 2SM BR BKN002
     FM191500 00000KT 6SM HZ BKN014
     FM191700 00000KT 6SM HZ BKN025
     FM191900 VRB03KT 6SM BR VCTS BKN035CB
     FM192100 27004KT P6SM VCTS BKN050CB
     FM200500 00000KT 5SM BR VCTS BKN040CB=

USA.gov is the U.S. government's official web portal to all federal, state and local government web resources and services.